Time;durP1;ratioP1;P1;durP2;ratioP2;P2;SDS_P1;SDS_P2;PMS_P1;PMS_P2;Temp;Humidity;BMP_temperature;BMP_pressure;BME280_temperature;BME280_humidity;BME280_pressure;Samples;Min_cycle;Max_cycle;Signal;HPM_P1;HPM_P2
2021/04/29 00:01:11;;;;;;;6.57;5.47;;;10.10;99.90;;;;;;5058081;28;20215;-52
2021/04/29 00:03:37;;;;;;;8.93;5.67;;;10.00;99.90;;;;;;5069157;28;20541;-54
2021/04/29 00:06:04;;;;;;;7.27;5.43;;;10.00;99.90;;;;;;5065745;28;20193;-54
2021/04/29 00:08:30;;;;;;;8.07;5.63;;;10.00;99.90;;;;;;5066318;28;20332;-49
2021/04/29 00:10:56;;;;;;;7.13;5.50;;;10.00;99.90;;;;;;5046425;28;20821;-50
2021/04/29 00:13:23;;;;;;;8.60;5.57;;;10.00;99.90;;;;;;5057753;28;20195;-48
2021/04/29 00:15:49;;;;;;;7.10;5.10;;;9.90;99.90;;;;;;5043396;28;20203;-54
2021/04/29 00:18:16;;;;;;;7.20;5.73;;;9.90;99.90;;;;;;5048214;28;20195;-51
2021/04/29 00:20:42;;;;;;;6.97;5.93;;;9.90;99.90;;;;;;5047704;28;20547;-54
2021/04/29 00:23:08;;;;;;;10.10;5.80;;;9.90;99.90;;;;;;5047362;28;20223;-52
2021/04/29 00:25:34;;;;;;;5.87;4.90;;;9.80;99.90;;;;;;5044702;28;20210;-56
2021/04/29 00:28:00;;;;;;;5.53;5.03;;;9.90;99.90;;;;;;5051304;28;20898;-55
2021/04/29 00:30:27;;;;;;;11.00;5.70;;;9.90;99.90;;;;;;5057135;28;20198;-50
2021/04/29 00:32:54;;;;;;;6.90;5.43;;;9.90;99.90;;;;;;5061584;28;20269;-54
2021/04/29 00:35:20;;;;;;;9.63;5.70;;;9.80;99.90;;;;;;5065595;28;20187;-54
2021/04/29 00:37:47;;;;;;;8.37;5.80;;;9.80;99.90;;;;;;5062860;28;20566;-55
2021/04/29 00:40:15;;;;;;;10.93;6.03;;;9.80;99.90;;;;;;5064655;28;20190;-51
2021/04/29 00:42:42;;;;;;;11.00;6.00;;;9.80;99.90;;;;;;5054314;28;20222;-52
2021/04/29 00:45:10;;;;;;;8.90;5.87;;;9.70;99.90;;;;;;5060304;28;20486;-53
2021/04/29 00:47:38;;;;;;;6.77;6.07;;;9.70;99.90;;;;;;5067296;28;20204;-54
2021/04/29 00:50:06;;;;;;;7.20;6.03;;;9.60;99.90;;;;;;5064727;28;20187;-51
2021/04/29 00:52:32;;;;;;;8.63;6.07;;;9.60;99.90;;;;;;5065184;28;20213;-54
2021/04/29 00:54:59;;;;;;;10.13;6.20;;;9.60;99.90;;;;;;5061538;28;20198;-49
2021/04/29 00:57:25;;;;;;;7.57;5.77;;;9.50;99.90;;;;;;5053992;28;20230;-51
2021/04/29 00:59:52;;;;;;;11.27;5.63;;;9.50;99.90;;;;;;5052552;28;20201;-54
2021/04/29 01:02:18;;;;;;;10.77;6.20;;;9.50;99.90;;;;;;5026837;28;20237;-49
2021/04/29 01:04:53;;;;;;;9.27;6.27;;;9.50;99.90;;;;;;5045731;28;20221;-55
2021/04/29 01:07:22;;;;;;;6.00;5.37;;;9.50;99.90;;;;;;5048237;28;20195;-54
2021/04/29 01:09:54;;;;;;;8.40;5.90;;;9.50;99.90;;;;;;5045345;28;20548;-55
2021/04/29 01:12:26;;;;;;;8.13;6.10;;;9.40;99.90;;;;;;5054730;28;20210;-49
2021/04/29 01:14:55;;;;;;;9.43;6.17;;;9.30;99.90;;;;;;5036330;28;20308;-56
2021/04/29 01:17:23;;;;;;;8.40;5.83;;;9.30;99.90;;;;;;5059704;28;20202;-51
2021/04/29 01:19:55;;;;;;;8.07;6.00;;;9.20;99.90;;;;;;5060720;28;20202;-54
2021/04/29 01:22:21;;;;;;;10.30;6.70;;;9.20;99.90;;;;;;5064628;28;20680;-51
2021/04/29 01:24:50;;;;;;;7.47;6.30;;;9.20;99.90;;;;;;5061269;28;20626;-55
2021/04/29 01:27:19;;;;;;;12.00;6.57;;;9.20;99.90;;;;;;5064181;28;20218;-54
2021/04/29 01:29:47;;;;;;;8.70;6.93;;;9.20;99.90;;;;;;5039100;28;20210;-54
2021/04/29 01:32:13;;;;;;;9.13;6.37;;;9.20;99.90;;;;;;5057280;28;20272;-52
2021/04/29 01:34:39;;;;;;;8.83;7.30;;;9.20;99.90;;;;;;5062561;28;20193;-52
2021/04/29 01:37:08;;;;;;;11.33;7.10;;;9.20;99.90;;;;;;5062104;28;20189;-53
2021/04/29 01:39:35;;;;;;;11.17;7.47;;;9.20;99.90;;;;;;5064257;28;20657;-55
2021/04/29 01:42:03;;;;;;;8.73;7.30;;;9.10;99.90;;;;;;5038185;28;20947;-56
2021/04/29 01:44:30;;;;;;;9.63;7.60;;;9.10;99.90;;;;;;5051361;28;20215;-52
2021/04/29 01:46:59;;;;;;;9.33;7.57;;;9.10;99.90;;;;;;5048285;28;20195;-50
2021/04/29 01:49:25;;;;;;;9.50;7.73;;;9.10;99.90;;;;;;5044079;28;20218;-51
2021/04/29 01:51:53;;;;;;;9.63;7.73;;;9.00;99.90;;;;;;5039810;28;20273;-54
2021/04/29 01:54:21;;;;;;;8.47;7.47;;;9.00;99.90;;;;;;5034493;28;20202;-55
2021/04/29 01:56:47;;;;;;;8.07;7.27;;;9.00;99.90;;;;;;5041051;28;20202;-50
2021/04/29 01:59:14;;;;;;;11.30;7.97;;;9.00;99.90;;;;;;5033331;28;20203;-53
2021/04/29 02:01:44;;;;;;;8.47;7.20;;;8.90;99.90;;;;;;5053928;28;20276;-48
2021/04/29 02:04:11;;;;;;;12.77;8.07;;;8.90;99.90;;;;;;5061590;28;20226;-52
2021/04/29 02:06:38;;;;;;;10.57;7.90;;;8.90;99.90;;;;;;5062202;28;20199;-54
2021/04/29 02:09:05;;;;;;;9.23;8.03;;;8.80;99.90;;;;;;5066809;28;20195;-52
2021/04/29 02:11:34;;;;;;;9.47;8.47;;;8.80;99.90;;;;;;5059072;28;20229;-55
2021/04/29 02:14:03;;;;;;;10.43;7.60;;;8.80;99.90;;;;;;5049478;28;20190;-53
2021/04/29 02:16:35;;;;;;;9.97;7.93;;;8.80;99.90;;;;;;5048200;28;20256;-55
2021/04/29 02:19:04;;;;;;;11.80;8.33;;;8.80;99.90;;;;;;5027212;28;20203;-54
2021/04/29 02:21:31;;;;;;;11.30;8.17;;;8.80;99.90;;;;;;5024335;28;20203;-54
2021/04/29 02:23:57;;;;;;;12.63;8.17;;;8.80;99.90;;;;;;5030974;28;20203;-53
2021/04/29 02:26:25;;;;;;;7.97;7.17;;;8.80;99.90;;;;;;5049902;28;20194;-52
2021/04/29 02:28:53;;;;;;;11.43;9.03;;;8.80;99.90;;;;;;5061822;28;20196;-52
2021/04/29 02:31:20;;;;;;;9.33;8.07;;;8.80;99.90;;;;;;5035314;28;20226;-55
2021/04/29 02:33:46;;;;;;;10.17;8.40;;;8.80;99.90;;;;;;5060075;28;20221;-51
2021/04/29 02:36:14;;;;;;;9.40;8.00;;;8.70;99.90;;;;;;5059298;28;20194;-53
2021/04/29 02:38:41;;;;;;;12.33;8.00;;;8.70;99.90;;;;;;5061648;28;20695;-55
2021/04/29 02:41:07;;;;;;;9.17;8.13;;;8.70;99.90;;;;;;5057084;28;20199;-53
2021/04/29 02:43:34;;;;;;;8.80;7.90;;;8.70;99.90;;;;;;5052636;28;20203;-54
2021/04/29 02:46:01;;;;;;;10.40;7.67;;;8.70;99.90;;;;;;5040590;28;20541;-52
2021/04/29 02:48:28;;;;;;;10.90;8.00;;;8.70;99.90;;;;;;5050220;28;20179;-57
2021/04/29 02:50:54;;;;;;;10.67;8.00;;;8.70;99.90;;;;;;5066650;28;20198;-53
2021/04/29 02:53:21;;;;;;;12.30;7.97;;;8.70;99.90;;;;;;5061465;28;20186;-57
2021/04/29 02:55:49;;;;;;;9.67;8.47;;;8.70;99.90;;;;;;5063095;28;20256;-55
2021/04/29 02:58:17;;;;;;;11.30;8.30;;;8.70;99.90;;;;;;5059897;28;20297;-57
2021/04/29 03:00:45;;;;;;;11.37;8.57;;;8.70;99.90;;;;;;5062244;28;20218;-52
2021/04/29 03:03:12;;;;;;;13.27;8.47;;;8.70;99.90;;;;;;5020929;28;20296;-56
2021/04/29 03:05:39;;;;;;;8.80;7.90;;;8.70;99.90;;;;;;5058776;28;20910;-48
2021/04/29 03:08:06;;;;;;;9.73;7.93;;;8.70;99.90;;;;;;5064920;28;20222;-54
2021/04/29 03:10:33;;;;;;;9.87;8.60;;;8.70;99.90;;;;;;5062923;28;20194;-52
2021/04/29 03:12:59;;;;;;;9.20;8.23;;;8.80;99.90;;;;;;5045239;28;20526;-49
2021/04/29 03:15:26;;;;;;;10.77;7.97;;;8.80;99.90;;;;;;5038922;28;20861;-52
2021/04/29 03:17:52;;;;;;;12.03;8.40;;;8.70;99.90;;;;;;5039007;28;20206;-49
2021/04/29 03:20:18;;;;;;;8.73;7.60;;;8.80;99.90;;;;;;5053256;28;20282;-54
2021/04/29 03:22:45;;;;;;;8.93;7.70;;;8.80;99.90;;;;;;5062627;28;20582;-52
2021/04/29 03:25:12;;;;;;;11.93;8.23;;;8.80;99.90;;;;;;5060699;28;20215;-56
2021/04/29 03:27:40;;;;;;;11.87;7.80;;;8.80;99.90;;;;;;5060642;28;20193;-51
2021/04/29 03:30:07;;;;;;;9.20;7.93;;;8.80;99.90;;;;;;5061301;28;20191;-56
2021/04/29 03:32:33;;;;;;;12.67;8.13;;;8.80;99.90;;;;;;5043996;28;20215;-50
2021/04/29 03:34:59;;;;;;;9.50;7.93;;;8.80;99.90;;;;;;5057618;28;20214;-53
2021/04/29 03:37:26;;;;;;;10.03;8.17;;;8.90;99.90;;;;;;5062490;28;20241;-54
2021/04/29 03:39:52;;;;;;;10.63;8.90;;;8.80;99.90;;;;;;5062567;28;20202;-56
2021/04/29 03:42:18;;;;;;;9.83;8.10;;;8.90;99.90;;;;;;5050136;28;20215;-56
2021/04/29 03:44:45;;;;;;;11.50;8.50;;;8.90;99.90;;;;;;5060224;28;20217;-53
2021/04/29 03:47:11;;;;;;;9.50;8.37;;;8.90;99.90;;;;;;5060135;28;20228;-55
2021/04/29 03:49:38;;;;;;;10.20;7.90;;;8.90;99.90;;;;;;5043505;28;20195;-51
2021/04/29 03:52:04;;;;;;;12.60;8.53;;;8.90;99.90;;;;;;5054123;28;20207;-56
2021/04/29 03:54:30;;;;;;;10.60;8.20;;;8.90;99.90;;;;;;5059331;28;20228;-52
2021/04/29 03:56:56;;;;;;;10.57;8.23;;;8.80;99.90;;;;;;5062546;28;20221;-51
2021/04/29 03:59:23;;;;;;;11.10;9.03;;;8.80;99.90;;;;;;5056061;28;20220;-53
2021/04/29 04:01:50;;;;;;;11.40;8.03;;;8.80;99.90;;;;;;5038311;28;20364;-48
2021/04/29 04:04:17;;;;;;;9.47;8.37;;;8.80;99.90;;;;;;5029587;28;20204;-56
2021/04/29 04:06:43;;;;;;;10.33;8.60;;;8.80;99.90;;;;;;5045312;28;20301;-48
2021/04/29 04:09:09;;;;;;;10.93;8.53;;;8.80;99.90;;;;;;5040341;28;20196;-54
2021/04/29 04:11:35;;;;;;;12.10;8.53;;;8.90;99.90;;;;;;5040037;28;20207;-49
2021/04/29 04:14:02;;;;;;;9.43;8.33;;;8.80;99.90;;;;;;5042084;28;20202;-55
2021/04/29 04:16:29;;;;;;;11.00;8.90;;;8.80;99.90;;;;;;5038811;28;20249;-52
2021/04/29 04:18:56;;;;;;;11.37;9.07;;;8.80;99.90;;;;;;5032980;28;20293;-52
2021/04/29 04:21:22;;;;;;;10.87;8.53;;;8.80;99.90;;;;;;5051343;28;20217;-54
2021/04/29 04:23:48;;;;;;;10.70;8.83;;;8.80;99.90;;;;;;5048753;28;20207;-53
2021/04/29 04:26:14;;;;;;;10.70;9.60;;;8.80;99.90;;;;;;5043079;28;20199;-55
2021/04/29 04:28:40;;;;;;;14.33;9.57;;;8.80;99.90;;;;;;5045431;28;20199;-52
2021/04/29 04:31:07;;;;;;;10.27;8.73;;;8.80;99.90;;;;;;5063516;28;20291;-54
2021/04/29 04:33:33;;;;;;;14.53;9.27;;;8.90;99.90;;;;;;5047035;28;20210;-55
2021/04/29 04:36:00;;;;;;;10.93;9.03;;;8.80;99.90;;;;;;5047425;28;20203;-53
2021/04/29 04:38:26;;;;;;;9.70;8.43;;;8.90;99.90;;;;;;5047934;28;20202;-52
2021/04/29 04:40:54;;;;;;;9.40;8.20;;;8.80;99.90;;;;;;5046343;28;20224;-52
2021/04/29 04:43:20;;;;;;;14.00;9.70;;;8.80;99.90;;;;;;5041528;28;20221;-52
2021/04/29 04:45:46;;;;;;;11.00;9.70;;;8.80;99.90;;;;;;5046110;28;20195;-51
2021/04/29 04:48:12;;;;;;;11.50;9.93;;;8.90;99.90;;;;;;5044846;28;20202;-54
2021/04/29 04:50:39;;;;;;;12.30;9.80;;;8.80;99.90;;;;;;5034745;28;20207;-48
2021/04/29 04:53:06;;;;;;;12.43;10.40;;;8.80;99.90;;;;;;5051326;28;20222;-51
2021/04/29 04:55:34;;;;;;;11.97;8.97;;;8.80;99.90;;;;;;5062608;28;20907;-51
2021/04/29 04:58:00;;;;;;;10.40;9.40;;;8.80;99.90;;;;;;5065289;28;20655;-51
2021/04/29 05:00:26;;;;;;;11.53;9.27;;;8.80;99.90;;;;;;5052789;28;20199;-51
2021/04/29 05:02:52;;;;;;;12.40;10.10;;;8.90;99.90;;;;;;5064191;28;20223;-55
2021/04/29 05:05:18;;;;;;;11.30;9.70;;;8.90;99.90;;;;;;5047897;28;20268;-52
2021/04/29 05:07:45;;;;;;;11.93;9.87;;;8.90;99.90;;;;;;5054646;28;20289;-55
2021/04/29 05:10:12;;;;;;;12.03;10.30;;;8.90;99.90;;;;;;5047549;28;20680;-53
2021/04/29 05:12:38;;;;;;;13.33;10.30;;;9.00;99.90;;;;;;5047785;28;20207;-54
2021/04/29 05:15:06;;;;;;;14.83;11.20;;;9.00;99.90;;;;;;5047733;28;20535;-52
2021/04/29 05:17:32;;;;;;;11.67;10.47;;;9.00;99.90;;;;;;5045327;28;20179;-51
2021/04/29 05:19:58;;;;;;;11.73;10.33;;;9.00;99.90;;;;;;5044553;28;20183;-52
2021/04/29 05:22:25;;;;;;;11.30;10.10;;;9.00;99.90;;;;;;5035656;28;20226;-48
2021/04/29 05:24:51;;;;;;;15.23;10.93;;;9.00;99.90;;;;;;5051628;28;20213;-52
2021/04/29 05:27:18;;;;;;;12.30;10.33;;;9.10;99.90;;;;;;5061364;28;20229;-51
2021/04/29 05:29:44;;;;;;;16.13;10.50;;;9.10;99.90;;;;;;5067012;28;20206;-54
2021/04/29 05:32:11;;;;;;;12.10;10.27;;;9.10;99.90;;;;;;5065485;28;20207;-54
2021/04/29 05:34:37;;;;;;;11.83;10.70;;;9.20;99.90;;;;;;5066698;28;20186;-49
2021/04/29 05:37:03;;;;;;;12.50;10.30;;;9.20;99.90;;;;;;5053654;28;20279;-54
2021/04/29 05:39:30;;;;;;;11.87;10.70;;;9.20;99.90;;;;;;5052135;28;20206;-54
2021/04/29 05:41:56;;;;;;;11.77;10.47;;;9.20;99.90;;;;;;5061474;28;20215;-50
2021/04/29 05:44:23;;;;;;;12.03;10.17;;;9.30;99.90;;;;;;5043351;28;20198;-50
2021/04/29 05:46:49;;;;;;;11.93;10.70;;;9.30;99.90;;;;;;5056151;28;20199;-52
2021/04/29 05:49:15;;;;;;;11.90;10.67;;;9.30;99.90;;;;;;5044696;28;20205;-54
2021/04/29 05:51:41;;;;;;;15.93;10.57;;;9.30;99.90;;;;;;5045275;28;20273;-57
2021/04/29 05:54:07;;;;;;;12.90;10.83;;;9.30;99.90;;;;;;5048837;28;20290;-55
2021/04/29 05:56:34;;;;;;;15.90;11.30;;;9.40;99.90;;;;;;5045126;28;20208;-56
2021/04/29 05:59:00;;;;;;;15.43;11.60;;;9.40;99.90;;;;;;5044460;28;20342;-55
2021/04/29 06:01:27;;;;;;;13.20;11.40;;;9.40;99.90;;;;;;5041819;28;20238;-55
2021/04/29 06:03:53;;;;;;;14.17;11.53;;;9.50;99.90;;;;;;5045960;28;20222;-54
2021/04/29 06:06:19;;;;;;;14.63;10.60;;;9.50;99.90;;;;;;5045337;28;20194;-55
2021/04/29 06:08:45;;;;;;;14.53;11.93;;;9.50;99.90;;;;;;5037436;28;20461;-51
2021/04/29 06:11:11;;;;;;;13.67;11.10;;;9.50;99.90;;;;;;5050676;28;20219;-52
2021/04/29 06:13:39;;;;;;;12.13;11.03;;;9.50;99.90;;;;;;5038328;28;20187;-54
2021/04/29 06:16:05;;;;;;;13.27;11.07;;;9.60;99.90;;;;;;5053770;28;20201;-51
2021/04/29 06:18:32;;;;;;;12.87;11.57;;;9.60;99.90;;;;;;5049805;28;20256;-54
2021/04/29 06:20:58;;;;;;;14.53;11.83;;;9.60;99.90;;;;;;5051378;28;20243;-52
2021/04/29 06:23:25;;;;;;;15.27;12.07;;;9.60;99.90;;;;;;5041685;28;20247;-54
2021/04/29 06:25:51;;;;;;;12.87;11.57;;;9.70;99.90;;;;;;5044892;28;20818;-54
2021/04/29 06:28:17;;;;;;;17.10;11.60;;;9.70;99.90;;;;;;5048532;28;20209;-52
2021/04/29 06:30:43;;;;;;;13.53;11.63;;;9.70;99.90;;;;;;5049622;28;20275;-55
2021/04/29 06:33:09;;;;;;;14.53;12.33;;;9.70;99.90;;;;;;5047327;28;20218;-55
2021/04/29 06:35:36;;;;;;;14.17;11.87;;;9.70;99.90;;;;;;5025914;28;20214;-54
2021/04/29 06:38:02;;;;;;;15.40;12.43;;;9.70;99.90;;;;;;5045906;28;20258;-51
2021/04/29 06:40:28;;;;;;;14.63;12.33;;;9.80;99.90;;;;;;5044334;28;20222;-52
2021/04/29 06:42:55;;;;;;;13.77;11.83;;;9.80;99.90;;;;;;5061712;28;20226;-53
2021/04/29 06:45:21;;;;;;;14.60;12.27;;;9.70;99.90;;;;;;5048465;28;20263;-55
2021/04/29 06:47:47;;;;;;;16.77;12.60;;;9.70;99.90;;;;;;5039800;28;20193;-53
2021/04/29 06:50:13;;;;;;;14.50;12.83;;;9.70;99.90;;;;;;5043318;28;20188;-49
2021/04/29 06:52:40;;;;;;;18.97;13.70;;;9.70;99.90;;;;;;5039340;28;20212;-56
2021/04/29 06:55:07;;;;;;;16.87;12.17;;;9.70;99.90;;;;;;5031541;28;20210;-48
2021/04/29 06:57:33;;;;;;;16.50;13.33;;;9.60;99.90;;;;;;5036113;28;20691;-51
2021/04/29 07:00:00;;;;;;;15.40;13.07;;;9.70;99.90;;;;;;5037910;28;20205;-54
2021/04/29 07:02:26;;;;;;;14.83;13.30;;;9.60;99.90;;;;;;5045315;28;20259;-50
2021/04/29 07:04:52;;;;;;;16.73;12.80;;;9.60;99.90;;;;;;5042267;28;20187;-55
2021/04/29 07:07:18;;;;;;;16.53;12.60;;;9.60;99.90;;;;;;5040028;28;20719;-48
2021/04/29 07:09:45;;;;;;;15.73;12.60;;;9.60;99.90;;;;;;5034158;28;20217;-51
2021/04/29 07:12:11;;;;;;;18.10;14.47;;;9.60;99.90;;;;;;5042144;28;20268;-49
2021/04/29 07:14:37;;;;;;;16.43;13.37;;;9.60;99.90;;;;;;5051258;28;20207;-47
2021/04/29 07:17:03;;;;;;;18.37;13.23;;;9.50;99.90;;;;;;5036306;28;20276;-55
2021/04/29 07:19:30;;;;;;;15.37;13.50;;;9.50;99.90;;;;;;5044081;28;20203;-57
2021/04/29 07:21:56;;;;;;;15.10;13.30;;;9.50;99.90;;;;;;5026829;28;20227;-55
2021/04/29 07:24:22;;;;;;;17.87;14.73;;;9.50;99.90;;;;;;5040842;28;20191;-52
2021/04/29 07:26:49;;;;;;;17.57;13.87;;;9.50;99.90;;;;;;5034698;28;20222;-54
2021/04/29 07:29:15;;;;;;;15.60;13.53;;;9.40;99.90;;;;;;5044026;28;20202;-53
2021/04/29 07:31:41;;;;;;;17.13;14.07;;;9.40;99.90;;;;;;5046268;28;20221;-53
2021/04/29 07:34:07;;;;;;;19.50;14.80;;;9.30;99.90;;;;;;5042359;28;20217;-56
2021/04/29 07:36:35;;;;;;;15.67;14.07;;;9.30;99.90;;;;;;5044147;28;20249;-54
2021/04/29 07:39:02;;;;;;;17.97;14.37;;;9.30;99.90;;;;;;5036021;28;20285;-54
2021/04/29 07:41:28;;;;;;;15.53;13.77;;;9.30;99.90;;;;;;5030527;28;20354;-50
2021/04/29 07:43:56;;;;;;;17.93;14.50;;;9.30;99.90;;;;;;5037543;28;20227;-56
2021/04/29 07:46:23;;;;;;;17.50;14.67;;;9.30;99.90;;;;;;5035776;28;20211;-53
2021/04/29 07:48:49;;;;;;;17.23;15.23;;;9.30;99.90;;;;;;5041809;28;20240;-54
2021/04/29 07:51:15;;;;;;;17.20;14.87;;;9.20;99.90;;;;;;5036606;28;20222;-52
2021/04/29 07:53:42;;;;;;;17.37;15.00;;;9.20;99.90;;;;;;5048545;28;20253;-49
2021/04/29 07:56:09;;;;;;;17.33;14.57;;;9.20;99.90;;;;;;5028000;28;25153;-55
2021/04/29 07:58:35;;;;;;;19.90;15.40;;;9.20;99.90;;;;;;5041651;28;20206;-52
2021/04/29 08:01:02;;;;;;;17.00;14.97;;;9.20;99.90;;;;;;5059423;28;20652;-54
2021/04/29 08:03:28;;;;;;;21.00;16.63;;;9.30;99.90;;;;;;5056118;28;20229;-49
2021/04/29 08:05:54;;;;;;;24.30;16.03;;;9.30;99.90;;;;;;5056746;28;20187;-54
2021/04/29 08:08:21;;;;;;;16.43;14.03;;;9.30;99.90;;;;;;5063987;28;20934;-50
2021/04/29 08:10:47;;;;;;;21.17;15.50;;;9.30;99.90;;;;;;5051774;28;20716;-50
2021/04/29 08:13:13;;;;;;;19.13;15.40;;;9.30;99.90;;;;;;5029211;28;20222;-53
2021/04/29 08:15:41;;;;;;;18.63;15.93;;;9.40;99.90;;;;;;5045520;28;20195;-53
2021/04/29 08:18:09;;;;;;;22.33;16.53;;;9.40;99.90;;;;;;5040100;28;20191;-55
2021/04/29 08:20:36;;;;;;;18.97;15.83;;;9.40;99.90;;;;;;5048485;28;20671;-55
2021/04/29 08:23:02;;;;;;;20.30;16.63;;;9.40;99.90;;;;;;5038781;28;20222;-55
2021/04/29 08:25:28;;;;;;;20.77;17.10;;;9.50;99.90;;;;;;5048526;28;20241;-50
2021/04/29 08:27:55;;;;;;;20.67;17.07;;;9.50;99.90;;;;;;5044723;28;20216;-58
2021/04/29 08:30:26;;;;;;;18.53;15.47;;;9.50;99.90;;;;;;5043783;28;20911;-53
2021/04/29 08:32:52;;;;;;;20.63;16.47;;;9.50;99.90;;;;;;5054747;28;20227;-54
2021/04/29 08:35:20;;;;;;;22.40;16.10;;;9.50;99.90;;;;;;5039843;28;21160;-52
2021/04/29 08:37:46;;;;;;;23.63;16.77;;;9.50;99.90;;;;;;5046641;28;20842;-53
2021/04/29 08:40:12;;;;;;;23.30;17.63;;;9.50;99.90;;;;;;5049081;28;20200;-51
2021/04/29 08:42:40;;;;;;;20.30;17.07;;;9.50;99.90;;;;;;5040777;28;20230;-50
2021/04/29 08:45:09;;;;;;;19.03;15.97;;;9.50;99.90;;;;;;5048032;28;20207;-57
2021/04/29 08:47:36;;;;;;;21.27;16.93;;;9.50;99.90;;;;;;5044743;28;20310;-54
2021/04/29 08:50:03;;;;;;;20.50;17.33;;;9.50;99.90;;;;;;5042985;28;20690;-55
2021/04/29 08:52:30;;;;;;;20.97;18.07;;;9.60;99.90;;;;;;5058485;28;20230;-58
2021/04/29 08:54:56;;;;;;;19.67;17.57;;;9.70;99.90;;;;;;5066036;28;20202;-58
2021/04/29 08:57:22;;;;;;;21.43;16.30;;;9.70;99.90;;;;;;5054792;28;20733;-58
2021/04/29 08:59:48;;;;;;;19.20;17.00;;;9.80;99.90;;;;;;5037805;28;20215;-54
2021/04/29 09:02:14;;;;;;;22.27;17.23;;;9.80;99.90;;;;;;5044234;28;20215;-57
2021/04/29 09:04:42;;;;;;;24.13;18.57;;;9.70;99.90;;;;;;5038769;28;20211;-53
2021/04/29 09:07:13;;;;;;;23.10;18.73;;;9.80;99.90;;;;;;5044935;28;20190;-56
2021/04/29 09:09:45;;;;;;;20.57;16.77;;;9.80;99.90;;;;;;5051450;28;20629;-56
2021/04/29 09:12:12;;;;;;;20.53;17.70;;;9.80;99.90;;;;;;5052802;28;20229;-57
2021/04/29 09:14:39;;;;;;;21.87;18.30;;;9.80;99.90;;;;;;5044278;28;20198;-58
2021/04/29 09:17:06;;;;;;;22.40;18.60;;;9.90;99.90;;;;;;5065759;28;20183;-56
2021/04/29 09:19:35;;;;;;;25.27;20.03;;;9.80;99.90;;;;;;5061051;28;20267;-58
2021/04/29 09:22:02;;;;;;;22.93;19.37;;;9.90;99.90;;;;;;5045616;28;20259;-58
2021/04/29 09:24:32;;;;;;;23.37;19.57;;;9.90;99.90;;;;;;5041327;28;20191;-60
2021/04/29 09:27:10;;;;;;;24.20;20.40;;;10.00;99.90;;;;;;5044607;28;20220;-55
2021/04/29 09:29:36;;;;;;;22.97;19.30;;;10.00;99.90;;;;;;5036909;28;20206;-53
2021/04/29 09:32:03;;;;;;;23.00;18.33;;;9.90;99.90;;;;;;5057371;28;20225;-56
2021/04/29 09:34:38;;;;;;;22.80;17.53;;;9.80;99.90;;;;;;5061441;28;20294;-59
2021/04/29 09:37:04;;;;;;;22.73;18.87;;;9.90;99.90;;;;;;5056144;28;20199;-57
2021/04/29 09:39:34;;;;;;;26.90;19.30;;;9.90;99.90;;;;;;5040884;28;20175;-57
2021/04/29 09:42:00;;;;;;;25.13;19.17;;;9.90;99.90;;;;;;5044768;28;20220;-57
2021/04/29 09:44:27;;;;;;;22.03;18.90;;;9.80;99.90;;;;;;5025743;28;20229;-58
2021/04/29 09:46:59;;;;;;;22.40;20.00;;;9.90;99.90;;;;;;5040959;28;20203;-56
2021/04/29 09:49:29;;;;;;;22.43;19.00;;;9.90;99.90;;;;;;5041073;28;20213;-58
2021/04/29 09:51:57;;;;;;;25.10;17.87;;;9.90;99.90;;;;;;5039782;28;20300;-57
2021/04/29 09:54:25;;;;;;;23.43;17.57;;;9.90;99.90;;;;;;5043197;28;20203;-58
2021/04/29 09:56:56;;;;;;;19.10;17.10;;;9.80;99.90;;;;;;5045411;28;20198;-58
2021/04/29 09:59:22;;;;;;;22.03;17.63;;;9.80;99.90;;;;;;5040582;28;20206;-58
2021/04/29 10:01:50;;;;;;;22.03;17.70;;;9.80;99.90;;;;;;5030315;28;20222;-57
2021/04/29 10:04:16;;;;;;;22.60;18.83;;;9.80;99.90;;;;;;5037984;28;20369;-59
2021/04/29 10:06:45;;;;;;;21.37;18.53;;;9.90;99.90;;;;;;5040330;28;20661;-58
2021/04/29 10:09:11;;;;;;;21.37;17.20;;;10.00;99.90;;;;;;5052873;28;20207;-58
2021/04/29 10:11:38;;;;;;;18.63;16.67;;;10.00;99.90;;;;;;5038858;28;20222;-59
2021/04/29 10:14:07;;;;;;;20.73;17.67;;;10.00;99.90;;;;;;5025553;28;20188;-59
2021/04/29 10:16:33;;;;;;;23.07;18.27;;;10.00;99.90;;;;;;5024526;28;20257;-59
2021/04/29 10:19:01;;;;;;;19.87;17.73;;;10.10;99.90;;;;;;5028656;28;20282;-59
2021/04/29 10:21:27;;;;;;;20.07;18.00;;;10.10;99.90;;;;;;5048439;28;20226;-57
2021/04/29 10:23:53;;;;;;;22.73;17.47;;;10.00;99.90;;;;;;5036816;28;20587;-58
2021/04/29 10:26:26;;;;;;;24.67;18.33;;;10.00;99.90;;;;;;5038562;28;20566;-60
2021/04/29 10:28:57;;;;;;;21.27;17.23;;;10.00;99.90;;;;;;5047476;28;20286;-60
2021/04/29 10:31:25;;;;;;;19.27;16.03;;;10.10;99.90;;;;;;5064226;28;20702;-58
2021/04/29 10:33:54;;;;;;;20.10;15.97;;;10.00;99.90;;;;;;5033398;28;20203;-56
2021/04/29 10:36:21;;;;;;;17.67;15.60;;;10.00;99.90;;;;;;5040907;28;20207;-59
2021/04/29 10:38:48;;;;;;;20.50;17.27;;;10.00;99.90;;;;;;5048624;28;20209;-59
2021/04/29 10:41:23;;;;;;;19.20;16.70;;;10.00;99.90;;;;;;5036119;28;20222;-60
2021/04/29 10:43:50;;;;;;;17.07;14.90;;;10.00;99.90;;;;;;5050149;28;20702;-58
2021/04/29 10:46:29;;;;;;;18.07;16.20;;;9.90;99.90;;;;;;5063547;28;20186;-58
2021/04/29 10:48:56;;;;;;;19.20;16.83;;;9.90;99.90;;;;;;5030571;28;20660;-59
2021/04/29 10:51:31;;;;;;;17.07;15.33;;;9.90;99.90;;;;;;5063004;28;20219;-59
2021/04/29 10:54:13;;;;;;;18.07;14.60;;;9.80;99.90;;;;;;5049531;28;20572;-60
2021/04/29 10:56:39;;;;;;;18.20;15.77;;;9.70;99.90;;;;;;5047231;28;20198;-59
2021/04/29 10:59:11;;;;;;;17.87;14.97;;;9.70;99.90;;;;;;5031871;28;20204;-58
2021/04/29 11:01:42;;;;;;;20.27;15.83;;;9.70;99.90;;;;;;5041590;28;20223;-58
2021/04/29 11:04:18;;;;;;;16.43;14.70;;;9.60;99.90;;;;;;5036490;28;21666;-59
2021/04/29 11:06:45;;;;;;;16.70;14.17;;;9.60;99.90;;;;;;5058012;28;20679;-59
2021/04/29 11:09:20;;;;;;;17.17;14.20;;;9.60;99.90;;;;;;5035571;28;20192;-53
2021/04/29 11:11:46;;;;;;;17.53;15.03;;;9.50;99.90;;;;;;5037169;28;20298;-58
2021/04/29 11:14:14;;;;;;;17.50;14.03;;;9.50;99.90;;;;;;5048335;28;20197;-57
2021/04/29 11:16:46;;;;;;;15.67;14.07;;;9.50;99.90;;;;;;5058482;28;20598;-57
2021/04/29 11:19:35;;;;;;;15.50;13.80;;;9.40;99.90;;;;;;5026842;28;20213;-58
2021/04/29 11:22:02;;;;;;;18.13;14.40;;;9.40;99.90;;;;;;5036661;28;20708;-58
2021/04/29 11:24:36;;;;;;;17.17;13.57;;;9.40;99.90;;;;;;5029759;28;20226;-58
2021/04/29 11:27:03;;;;;;;15.67;13.33;;;9.40;99.90;;;;;;5036638;28;20570;-59
2021/04/29 11:29:37;;;;;;;16.53;13.70;;;9.30;99.90;;;;;;5041860;28;20202;-58
2021/04/29 11:32:03;;;;;;;16.00;12.67;;;9.30;99.90;;;;;;5036122;28;20211;-60
2021/04/29 11:34:39;;;;;;;16.33;13.70;;;9.30;99.90;;;;;;5020961;28;20860;-59
2021/04/29 11:37:06;;;;;;;17.17;14.67;;;9.30;99.90;;;;;;5033524;28;20198;-59
2021/04/29 11:39:32;;;;;;;15.77;13.60;;;9.30;99.90;;;;;;5031506;28;20199;-59
2021/04/29 11:41:59;;;;;;;16.00;13.77;;;9.40;99.90;;;;;;5035549;28;20213;-59
2021/04/29 11:44:25;;;;;;;16.30;13.77;;;9.40;99.90;;;;;;5027190;28;20227;-59
2021/04/29 11:46:51;;;;;;;18.63;14.03;;;9.40;99.90;;;;;;5041407;28;20199;-58
2021/04/29 11:49:17;;;;;;;16.83;14.60;;;9.30;99.90;;;;;;5016663;28;20200;-59
2021/04/29 11:51:45;;;;;;;15.90;14.27;;;9.30;99.90;;;;;;5038331;28;20257;-56
2021/04/29 11:54:16;;;;;;;17.17;13.90;;;9.30;99.90;;;;;;5046607;28;20191;-54
2021/04/29 11:56:44;;;;;;;15.97;13.30;;;9.30;99.90;;;;;;5047055;28;20725;-53
2021/04/29 11:59:10;;;;;;;17.47;14.77;;;9.30;99.90;;;;;;5012144;28;20228;-56
2021/04/29 12:01:37;;;;;;;15.63;13.40;;;9.30;99.90;;;;;;5036898;28;20227;-54
2021/04/29 12:04:14;;;;;;;15.40;13.53;;;9.30;99.90;;;;;;5059197;28;20218;-57
2021/04/29 12:06:47;;;;;;;17.37;13.60;;;9.30;99.90;;;;;;5046711;28;20223;-52
2021/04/29 12:09:14;;;;;;;19.57;13.23;;;9.30;99.90;;;;;;5046234;28;20207;-54
2021/04/29 12:11:41;;;;;;;18.30;13.47;;;9.30;99.90;;;;;;5030079;28;20322;-54
2021/04/29 12:14:07;;;;;;;17.53;15.07;;;9.30;99.90;;;;;;5048121;28;20209;-56
2021/04/29 12:16:33;;;;;;;18.33;14.40;;;9.30;99.90;;;;;;5049523;28;20200;-54
2021/04/29 12:19:00;;;;;;;19.13;14.93;;;9.30;99.90;;;;;;5037690;28;20194;-53
2021/04/29 12:21:28;;;;;;;20.83;15.77;;;9.30;99.90;;;;;;5042145;28;20957;-54
2021/04/29 12:23:57;;;;;;;22.17;16.43;;;9.20;99.90;;;;;;5057642;28;20218;-54
2021/04/29 12:26:31;;;;;;;17.67;14.83;;;9.20;99.90;;;;;;5031340;28;20222;-53
2021/04/29 12:29:00;;;;;;;17.37;15.53;;;9.20;99.90;;;;;;5040341;28;20215;-55
2021/04/29 12:31:26;;;;;;;18.43;15.53;;;9.20;99.90;;;;;;5041582;28;20959;-56
2021/04/29 12:33:54;;;;;;;19.60;15.93;;;9.20;99.90;;;;;;5043591;28;20196;-57
2021/04/29 12:36:21;;;;;;;19.50;16.27;;;9.20;99.90;;;;;;5026431;28;20199;-49
2021/04/29 12:38:47;;;;;;;21.03;16.13;;;9.20;99.90;;;;;;5042568;28;20541;-51
2021/04/29 12:41:14;;;;;;;19.87;16.27;;;9.20;99.90;;;;;;5042008;28;20227;-53
2021/04/29 12:43:42;;;;;;;23.10;16.70;;;9.20;99.90;;;;;;5050147;28;20218;-48